Mt Bachelor previous 24hr weather report

For range Aug 27 2015 8:01 PM PDT to Aug 28 2015 8:01 PM PDT.

Date and time 6300' Base Temp 7800' Pine Temp 8000' Northwest Temp 9000' Summit Temp Base RH Pine RH Summit RH Pine Wind Avg Pine Wind Max Pine Wind Dir Northwest Wind Avg Northwest Wind Max Northwest Wind Dir Summit Wind Avg Summit Wind Max Summit Wind Dir Snowdepth
Aug 28 2015 7:00 PM PDT 64.31 -6999.0 n/a 54.47 36 -6999 46 0 0 0 n/a n/a n/a 34 43 47 162
Aug 28 2015 6:00 PM PDT 65.27 -6999.0 n/a 54.2 33 -6999 45 0 0 0 n/a n/a n/a 33 41 47 162
Aug 28 2015 5:00 PM PDT 66.9 -6999.0 n/a 54.13 30 -6999 42 0 0 0 n/a n/a n/a 16 27 47 162
Aug 28 2015 4:00 PM PDT 65.67 -6999.0 n/a 53.08 33 -6999 47 0 0 0 n/a n/a n/a 26 47 47 162
Aug 28 2015 3:00 PM PDT 63.66 -6999.0 n/a 52.52 37 -6999 43 0 0 0 n/a n/a n/a 41 50 47 162
Aug 28 2015 2:00 PM PDT 65.47 -6999.0 n/a 51.98 35 -6999 53 0 0 0 n/a n/a n/a 43 56 47 162
Aug 28 2015 1:00 PM PDT 65.89 -6999.0 n/a 51.43 38 -6999 56 0 0 0 n/a n/a n/a 45 59 47 162
Aug 28 2015 12:00 PM PDT 60.8 -6999.0 n/a 49.17 40 -6999 55 0 0 0 n/a n/a n/a 46 60 47 ?
Aug 28 2015 11:00 AM PDT 58.81 -6999.0 n/a 48.21 49 -6999 50 0 0 0 n/a n/a n/a 48 58 47 162
Aug 28 2015 10:00 AM PDT 57.36 -6999.0 n/a 46.5 45 -6999 61 0 0 0 n/a n/a n/a 18 24 47 161
Aug 28 2015 9:00 AM PDT 55.7 -6999.0 n/a 46.97 48 -6999 57 0 0 0 n/a n/a n/a 22 30 47 162
Aug 28 2015 8:00 AM PDT 54.1 -6999.0 n/a 46.98 54 -6999 58 0 0 0 n/a n/a n/a 33 40 47 161
Aug 28 2015 7:00 AM PDT 51.67 -6999.0 n/a 47.04 67 -6999 57 0 0 0 n/a n/a n/a 38 43 47 162
Aug 28 2015 6:00 AM PDT 52.92 -6999.0 n/a 48.12 65 -6999 63 0 0 0 n/a n/a n/a 41 47 47 162
Aug 28 2015 5:00 AM PDT 52.58 -6999.0 n/a 48.55 64 -6999 67 0 0 0 n/a n/a n/a 34 41 47 162
Aug 28 2015 4:00 AM PDT 53.96 -6999.0 n/a 50.38 58 -6999 58 0 0 0 n/a n/a n/a 34 42 47 162
Aug 28 2015 3:00 AM PDT 55.24 -6999.0 n/a 52.32 53 -6999 52 0 0 0 n/a n/a n/a 33 40 47 162
Aug 28 2015 2:00 AM PDT 55.21 -6999.0 n/a 54.5 53 -6999 47 0 0 0 n/a n/a n/a 13 19 47 162
Aug 28 2015 1:00 AM PDT 48.44 -6999.0 n/a 53.81 66 -6999 49 0 0 0 n/a n/a n/a 16 21 47 162
Aug 28 2015 12:00 AM PDT 49.31 -6999.0 n/a 58.62 64 -6999 39 0 0 0 n/a n/a n/a 12 16 47 161
Aug 27 2015 11:00 PM PDT 51.25 -6999.0 n/a 59.6 59 -6999 37 0 0 0 n/a n/a n/a 9 14 47 162
Aug 27 2015 10:00 PM PDT 53.47 -6999.0 n/a 59.99 55 -6999 36 0 0 0 n/a n/a n/a 20 24 47 162
Aug 27 2015 9:00 PM PDT 58.01 -6999.0 n/a 58.06 47 -6999 38 0 0 0 n/a n/a n/a 18 21 47 162